createdAt,value
2023-01-10T00:02:12.408Z,76.67
2023-01-10T00:04:40.734Z,76.69
2023-01-10T00:07:08.931Z,76.69
2023-01-10T00:09:38.202Z,76.66
2023-01-10T00:12:31.191Z,76.66
2023-01-10T00:15:05.937Z,76.62
2023-01-10T00:17:34.343Z,76.62
2023-01-10T00:20:22.867Z,76.70
2023-01-10T00:22:52.003Z,76.67
2023-01-10T00:25:20.971Z,76.76
2023-01-10T00:27:51.466Z,76.85
2023-01-10T00:30:19.797Z,76.98
2023-01-10T00:32:54.756Z,77.00
2023-01-10T00:35:23.481Z,77.02
2023-01-10T00:37:53.495Z,77.06
2023-01-10T00:40:21.712Z,77.08
2023-01-10T00:43:08.253Z,77.09
2023-01-10T00:45:36.543Z,77.04
2023-01-10T00:48:07.229Z,76.97
2023-01-10T00:50:43.376Z,77.02
2023-01-10T00:53:17.758Z,77.02
2023-01-10T00:55:49.479Z,77.01
2023-01-10T00:58:17.939Z,76.84
2023-01-10T01:00:46.536Z,76.96
2023-01-10T01:03:15.239Z,77.01
2023-01-10T01:05:45.644Z,76.92
2023-01-10T01:08:16.409Z,76.88
2023-01-10T01:10:44.733Z,77.05
2023-01-10T01:13:20.162Z,77.08
2023-01-10T01:15:48.796Z,77.00
2023-01-10T01:18:21.192Z,77.39
2023-01-10T01:20:59.827Z,77.42
2023-01-10T01:23:28.684Z,77.09
2023-01-10T01:25:57.755Z,77.12
2023-01-10T01:28:26.888Z,77.04
2023-01-10T01:30:55.127Z,76.99
2023-01-10T01:33:23.931Z,76.92
2023-01-10T01:35:52.069Z,76.92
2023-01-10T01:38:20.178Z,76.80
2023-01-10T01:40:48.198Z,76.49
2023-01-10T01:43:25.681Z,76.38
2023-01-10T01:45:55.276Z,76.24
2023-01-10T01:48:39.513Z,76.10
2023-01-10T01:51:18.083Z,76.00
2023-01-10T01:53:54.367Z,76.11
2023-01-10T01:56:48.161Z,76.15
2023-01-10T01:59:21.517Z,76.17
2023-01-10T02:01:54.180Z,76.21
2023-01-10T02:04:33.905Z,76.22
2023-01-10T02:07:02.110Z,76.29
2023-01-10T02:09:50.787Z,76.32
2023-01-10T02:12:28.453Z,76.33
2023-01-10T02:15:04.430Z,76.30
2023-01-10T02:17:44.687Z,76.37
2023-01-10T02:20:18.863Z,76.41
2023-01-10T02:23:24.584Z,76.48
2023-01-10T02:26:16.829Z,76.49
2023-01-10T02:29:10.896Z,76.53
2023-01-10T02:35:52.197Z,76.66
2023-01-10T02:38:47.447Z,76.63
2023-01-10T02:41:49.777Z,76.64
2023-01-10T02:44:46.418Z,76.63
2023-01-10T02:47:26.873Z,76.66
2023-01-10T02:50:04.148Z,76.66
2023-01-10T02:52:32.680Z,76.65
2023-01-10T02:55:03.506Z,76.78
2023-01-10T02:57:39.781Z,76.77
2023-01-10T03:00:28.803Z,76.81
2023-01-10T03:03:14.451Z,76.84
2023-01-10T03:06:13.391Z,76.92
2023-01-10T03:08:55.251Z,77.28
2023-01-10T03:11:29.591Z,77.50
2023-01-10T03:14:00.495Z,77.55
2023-01-10T03:16:31.521Z,77.47
2023-01-10T03:19:20.692Z,77.62
2023-01-10T03:21:52.545Z,77.86
2023-01-10T03:24:25.206Z,77.75
2023-01-10T03:27:13.765Z,77.70
2023-01-10T03:30:02.340Z,77.78
2023-01-10T03:32:32.384Z,77.75
2023-01-10T03:35:02.602Z,77.81
2023-01-10T03:37:59.641Z,77.84
2023-01-10T03:40:43.431Z,77.85
2023-01-10T03:43:44.460Z,77.92
2023-01-10T03:46:21.561Z,77.95
2023-01-10T03:48:51.623Z,77.92
2023-01-10T03:51:20.529Z,78.02
2023-01-10T03:53:48.744Z,78.00
2023-01-10T03:56:16.925Z,78.06
2023-01-10T03:58:47.058Z,78.13
2023-01-10T04:01:15.952Z,78.13
2023-01-10T04:03:46.072Z,78.17
2023-01-10T04:06:14.397Z,78.21
2023-01-10T04:08:42.624Z,78.21
2023-01-10T04:11:10.914Z,78.19
2023-01-10T04:13:40.875Z,78.17
2023-01-10T04:16:09.265Z,78.19
2023-01-10T04:18:37.354Z,78.12
2023-01-10T04:21:06.496Z,78.08
2023-01-10T04:23:34.538Z,78.01
2023-01-10T04:26:02.613Z,77.94
2023-01-10T04:28:30.521Z,77.81
2023-01-10T04:30:58.698Z,77.82
2023-01-10T04:33:28.178Z,77.72
2023-01-10T04:35:56.263Z,77.52
2023-01-10T04:38:24.212Z,77.41
2023-01-10T04:40:54.733Z,77.38
2023-01-10T04:43:25.066Z,77.25
2023-01-10T04:45:53.320Z,77.22
2023-01-10T04:48:21.546Z,77.08
2023-01-10T04:50:53.166Z,76.97
2023-01-10T04:53:21.985Z,76.71
2023-01-10T04:55:49.960Z,76.76
2023-01-10T04:58:18.234Z,76.48
2023-01-10T05:00:46.301Z,76.52
2023-01-10T05:03:19.434Z,76.48
2023-01-10T05:05:47.749Z,76.28
2023-01-10T05:08:32.051Z,76.27
2023-01-10T05:11:05.279Z,76.26
2023-01-10T05:13:53.060Z,76.12
2023-01-10T05:16:29.154Z,76.17
2023-01-10T05:18:58.534Z,76.20
2023-01-10T05:21:44.874Z,76.13
2023-01-10T05:24:30.773Z,76.14
2023-01-10T05:27:06.224Z,76.24
2023-01-10T05:29:38.363Z,76.58
2023-01-10T05:32:06.860Z,76.68
2023-01-10T05:34:35.239Z,76.58
2023-01-10T05:37:03.728Z,76.55
2023-01-10T05:39:32.109Z,76.55
2023-01-10T05:42:00.677Z,76.62
2023-01-10T05:44:28.109Z,76.59
2023-01-10T05:46:56.015Z,76.51
2023-01-10T05:49:23.875Z,76.70
2023-01-10T05:51:51.745Z,76.88
2023-01-10T05:54:19.572Z,76.89
2023-01-10T05:56:47.280Z,76.88
2023-01-10T05:59:27.461Z,76.81
2023-01-10T06:01:44.495Z,76.84
2023-01-10T06:04:12.335Z,76.68
2023-01-10T06:06:40.189Z,76.55
2023-01-10T06:09:07.877Z,76.59
2023-01-10T06:11:37.711Z,76.41
2023-01-10T06:14:07.266Z,76.40
2023-01-10T06:16:35.059Z,76.42
2023-01-10T06:19:02.942Z,76.32
2023-01-10T06:21:30.711Z,76.24
2023-01-10T06:23:58.576Z,76.27
2023-01-10T06:26:26.420Z,76.25
2023-01-10T06:28:54.362Z,76.20
2023-01-10T06:31:22.783Z,76.15
2023-01-10T06:33:51.432Z,76.07
2023-01-10T06:36:19.765Z,76.12
2023-01-10T06:38:47.953Z,76.03
2023-01-10T06:41:15.675Z,75.90
2023-01-10T06:43:45.840Z,75.93
2023-01-10T06:46:19.083Z,75.88
2023-01-10T06:48:47.808Z,75.94
2023-01-10T06:51:19.162Z,75.87
2023-01-10T06:53:46.501Z,75.78
2023-01-10T06:56:14.288Z,75.71
2023-01-10T06:58:42.017Z,75.66
2023-01-10T07:01:19.593Z,75.64
2023-01-10T07:03:48.353Z,75.52
2023-01-10T07:06:16.338Z,75.57
2023-01-10T07:08:45.918Z,75.45
2023-01-10T07:11:16.542Z,75.38
2023-01-10T07:13:44.566Z,75.32
2023-01-10T07:16:15.591Z,75.29
2023-01-10T07:18:43.673Z,75.27
2023-01-10T07:21:12.138Z,75.18
2023-01-10T07:23:40.307Z,74.91
2023-01-10T07:26:11.200Z,74.68
2023-01-10T07:28:38.791Z,74.95
2023-01-10T07:31:06.583Z,75.11
2023-01-10T07:33:34.347Z,75.35
2023-01-10T07:36:03.371Z,75.35
2023-01-10T07:38:31.154Z,75.47
2023-01-10T07:41:04.448Z,75.35
2023-01-10T07:43:33.469Z,75.08
2023-01-10T07:46:04.112Z,75.14
2023-01-10T07:48:31.827Z,75.16
2023-01-10T07:51:01.342Z,74.81
2023-01-10T07:53:29.393Z,75.19
2023-01-10T07:56:02.683Z,75.04
2023-01-10T07:58:31.147Z,74.70
2023-01-10T08:01:01.950Z,74.29
2023-01-10T08:03:30.323Z,73.60
2023-01-10T08:06:04.367Z,72.56
2023-01-10T08:08:34.004Z,70.85
2023-01-10T08:11:02.269Z,71.37
2023-01-10T08:13:31.483Z,71.16
2023-01-10T08:15:59.691Z,70.86
2023-01-10T08:18:27.675Z,69.26
2023-01-10T08:20:55.589Z,69.40
2023-01-10T08:23:23.547Z,68.74
2023-01-10T08:25:53.975Z,68.15
2023-01-10T08:28:21.691Z,67.43
2023-01-10T08:30:51.575Z,67.64
2023-01-10T08:33:19.292Z,67.47
2023-01-10T08:35:47.196Z,67.84
2023-01-10T08:38:15.877Z,68.08
2023-01-10T08:40:43.537Z,67.99
2023-01-10T08:43:12.461Z,68.03
2023-01-10T08:45:42.092Z,67.48
2023-01-10T08:48:10.297Z,67.47
2023-01-10T08:50:38.187Z,68.00
2023-01-10T08:53:05.941Z,67.63
2023-01-10T08:55:36.800Z,67.97
2023-01-10T08:58:04.566Z,68.15
2023-01-10T09:00:32.406Z,68.26
2023-01-10T09:03:00.535Z,68.05
2023-01-10T09:05:28.703Z,67.60
2023-01-10T09:08:02.082Z,67.84
2023-01-10T09:10:31.653Z,67.35
2023-01-10T09:13:01.103Z,66.80
2023-01-10T09:15:35.208Z,67.06
2023-01-10T09:18:07.101Z,67.12
2023-01-10T09:20:37.862Z,67.28
2023-01-10T09:23:09.393Z,67.10
2023-01-10T09:25:37.972Z,67.14
2023-01-10T09:28:06.738Z,67.07
2023-01-10T09:30:34.836Z,67.14
2023-01-10T09:33:04.837Z,66.98
2023-01-10T09:35:35.640Z,66.86
2023-01-10T09:38:06.119Z,67.02
2023-01-10T09:41:12.422Z,67.12
2023-01-10T09:43:52.808Z,66.73
2023-01-10T09:46:53.703Z,66.46
2023-01-10T09:49:48.919Z,66.78
2023-01-10T09:52:27.676Z,66.61
2023-01-10T09:54:58.655Z,66.63
2023-01-10T09:57:26.433Z,66.57
2023-01-10T09:59:54.277Z,66.45
2023-01-10T10:02:34.943Z,66.65
2023-01-10T10:05:20.169Z,65.69
2023-01-10T10:07:56.142Z,65.89
2023-01-10T10:10:33.276Z,65.81
2023-01-10T10:13:37.748Z,65.52
2023-01-10T10:16:46.863Z,65.89
2023-01-10T10:20:02.763Z,66.01
2023-01-10T10:23:03.597Z,65.38
2023-01-10T10:25:57.009Z,65.80
2023-01-10T10:28:56.375Z,65.38
2023-01-10T10:31:52.564Z,65.03
2023-01-10T10:34:37.378Z,64.70
2023-01-10T10:37:33.242Z,64.98
2023-01-10T10:40:22.328Z,64.51
2023-01-10T10:42:53.584Z,64.66
2023-01-10T10:45:29.440Z,64.32
2023-01-10T10:48:05.650Z,63.98
2023-01-10T10:50:35.692Z,63.18
2023-01-10T10:53:04.773Z,63.33
2023-01-10T10:55:37.066Z,62.71
2023-01-10T10:58:08.277Z,63.00
2023-01-10T11:00:48.853Z,63.19
2023-01-10T11:03:49.583Z,62.39
2023-01-10T11:06:19.776Z,61.96
2023-01-10T11:08:52.486Z,61.94
2023-01-10T11:11:37.046Z,61.83
2023-01-10T11:14:08.529Z,61.52
2023-01-10T11:16:44.399Z,61.96
2023-01-10T11:19:24.902Z,62.16
2023-01-10T11:22:02.525Z,62.14
2023-01-10T11:24:40.593Z,62.15
2023-01-10T11:27:18.505Z,62.32
2023-01-10T11:29:50.504Z,62.23
2023-01-10T11:32:22.994Z,62.12
2023-01-10T11:35:01.426Z,61.67
2023-01-10T11:37:32.921Z,62.06
2023-01-10T11:40:25.653Z,62.35
2023-01-10T11:43:06.843Z,62.73
2023-01-10T11:46:06.807Z,63.01
2023-01-10T11:49:08.631Z,63.08
2023-01-10T11:51:34.674Z,63.14
2023-01-10T11:54:15.051Z,63.40
2023-01-10T11:57:00.237Z,63.53
2023-01-10T11:59:28.868Z,63.46
2023-01-10T12:02:22.791Z,63.54
2023-01-10T12:04:52.752Z,63.49
2023-01-10T12:07:23.787Z,63.21
2023-01-10T12:10:03.415Z,63.06
2023-01-10T12:12:38.053Z,62.78
2023-01-10T12:15:30.425Z,63.08
2023-01-10T12:18:05.320Z,63.15
2023-01-10T12:20:38.635Z,63.50
2023-01-10T12:23:14.708Z,63.38
2023-01-10T12:25:45.157Z,63.52
2023-01-10T12:28:23.504Z,63.42
2023-01-10T12:30:55.818Z,63.34
2023-01-10T12:33:34.993Z,63.17
2023-01-10T12:36:25.577Z,63.43
2023-01-10T12:39:23.096Z,63.31
2023-01-10T12:42:30.269Z,63.34
2023-01-10T12:45:10.072Z,62.80
2023-01-10T12:48:07.450Z,62.79
2023-01-10T12:50:53.127Z,63.02
2023-01-10T12:53:34.173Z,63.22
2023-01-10T12:56:08.664Z,62.63
2023-01-10T12:58:51.832Z,62.85
2023-01-10T13:01:27.964Z,62.52
2023-01-10T13:04:06.223Z,62.83
2023-01-10T13:06:37.881Z,63.14
2023-01-10T13:09:27.804Z,63.23
2023-01-10T13:12:12.269Z,63.44
2023-01-10T13:15:13.145Z,63.44
2023-01-10T13:17:48.206Z,63.76
2023-01-10T13:20:26.375Z,63.92
2023-01-10T13:23:00.792Z,64.02
2023-01-10T13:25:34.549Z,64.05
2023-01-10T13:28:28.149Z,64.12
2023-01-10T13:31:00.970Z,64.13
2023-01-10T13:33:33.013Z,64.15
2023-01-10T13:36:14.965Z,64.29
2023-01-10T13:38:50.988Z,64.30
2023-01-10T13:41:37.920Z,64.31
2023-01-10T13:44:11.191Z,64.26
2023-01-10T13:46:51.805Z,64.34
2023-01-10T13:49:40.100Z,64.27
2023-01-10T13:52:29.792Z,64.24
2023-01-10T13:55:03.298Z,64.35
2023-01-10T13:57:55.983Z,64.45
2023-01-10T14:00:53.489Z,64.63
2023-01-10T14:03:53.144Z,64.72
2023-01-10T14:06:36.903Z,64.75
2023-01-10T14:09:28.913Z,65.05
2023-01-10T14:23:18.221Z,65.89
2023-01-10T14:25:55.319Z,65.96
2023-01-10T14:28:28.210Z,66.17
2023-01-10T14:31:21.809Z,66.36
2023-01-10T14:33:50.497Z,66.55
2023-01-10T14:36:34.043Z,66.71
2023-01-10T14:39:06.768Z,66.83
2023-01-10T14:41:43.548Z,67.00
2023-01-10T14:44:32.943Z,67.14
2023-01-10T14:47:04.089Z,67.29
2023-01-10T14:49:50.796Z,67.45
2023-01-10T14:52:22.261Z,67.62
2023-01-10T14:55:22.221Z,67.79
2023-01-10T14:58:01.751Z,68.01
2023-01-10T15:00:33.825Z,68.07
2023-01-10T15:03:04.408Z,68.14
2023-01-10T15:05:40.604Z,68.23
2023-01-10T15:08:25.111Z,68.31
2023-01-10T15:11:01.684Z,68.43
2023-01-10T15:13:35.251Z,68.55
2023-01-10T15:16:07.485Z,68.58
2023-01-10T15:18:43.402Z,68.69
2023-01-10T15:21:14.322Z,68.81
2023-01-10T15:23:45.940Z,68.87
2023-01-10T15:26:30.217Z,68.91
2023-01-10T15:29:16.525Z,69.09
2023-01-10T15:31:44.721Z,69.25
2023-01-10T15:34:22.461Z,69.40
2023-01-10T15:36:57.309Z,69.51
2023-01-10T15:39:32.823Z,69.56
2023-01-10T15:42:09.165Z,69.71
2023-01-10T15:44:44.745Z,69.78
2023-01-10T15:47:39.479Z,69.80
2023-01-10T15:50:28.872Z,70.00
2023-01-10T15:53:00.800Z,69.99
2023-01-10T15:55:46.645Z,70.06
2023-01-10T15:58:30.684Z,70.19
2023-01-10T16:01:01.452Z,70.37
2023-01-10T16:03:36.928Z,70.44
2023-01-10T16:06:08.407Z,70.54
2023-01-10T16:08:38.643Z,70.56
2023-01-10T16:11:11.982Z,70.61
2023-01-10T16:13:41.058Z,70.67
2023-01-10T16:16:14.424Z,70.68
2023-01-10T16:18:42.241Z,70.88
2023-01-10T16:21:11.412Z,70.96
2023-01-10T16:23:43.659Z,70.98
2023-01-10T16:26:19.758Z,71.06
2023-01-10T16:28:47.759Z,71.11
2023-01-10T16:31:15.506Z,71.15
2023-01-10T16:33:44.978Z,71.21
2023-01-10T16:36:19.643Z,71.33
2023-01-10T16:38:47.840Z,71.39
2023-01-10T16:41:35.088Z,71.53
2023-01-10T16:44:02.970Z,71.65
2023-01-10T16:46:31.736Z,71.74
2023-01-10T16:48:59.987Z,71.78
2023-01-10T16:51:31.815Z,71.79
2023-01-10T16:54:00.860Z,71.80
2023-01-10T16:56:30.127Z,71.89
2023-01-10T16:58:59.348Z,71.87
2023-01-10T17:01:35.904Z,71.96
2023-01-10T17:04:29.540Z,71.98
2023-01-10T17:06:58.853Z,72.10
2023-01-10T17:09:29.882Z,72.08
2023-01-10T17:12:18.616Z,72.12
2023-01-10T17:14:50.812Z,72.14
2023-01-10T17:17:31.811Z,72.17
2023-01-10T17:20:00.662Z,72.22
2023-01-10T17:22:30.489Z,72.32
2023-01-10T17:24:58.535Z,72.39
2023-01-10T17:27:26.606Z,72.36
2023-01-10T17:29:54.525Z,72.39
2023-01-10T17:32:22.537Z,72.41
2023-01-10T17:34:55.249Z,72.38
2023-01-10T17:37:23.104Z,72.34
2023-01-10T17:39:50.825Z,72.33
2023-01-10T17:42:19.858Z,72.20
2023-01-10T17:44:49.259Z,72.27
2023-01-10T17:47:17.724Z,72.11
2023-01-10T17:49:49.480Z,72.14
2023-01-10T17:52:17.803Z,72.10
2023-01-10T17:54:52.742Z,72.09
2023-01-10T17:57:21.090Z,72.06
2023-01-10T18:03:45.744Z,72.07
2023-01-10T18:07:03.315Z,72.09
2023-01-10T18:10:04.671Z,72.10
2023-01-10T18:12:40.089Z,72.20
2023-01-10T18:15:11.227Z,72.15
2023-01-10T18:24:09.990Z,72.86
2023-01-10T18:26:37.996Z,73.04
2023-01-10T18:29:05.957Z,73.24
2023-01-10T18:31:34.899Z,73.34
2023-01-10T18:34:02.844Z,73.56
2023-01-10T18:36:38.698Z,73.67
2023-01-10T18:39:06.497Z,73.89
2023-01-10T18:41:34.525Z,73.99
2023-01-10T18:44:02.623Z,74.26
2023-01-10T18:46:31.930Z,74.53
2023-01-10T18:49:00.274Z,74.69
2023-01-10T18:51:28.253Z,74.98
2023-01-10T18:53:56.166Z,74.97
2023-01-10T18:56:24.480Z,74.93
2023-01-10T18:58:52.697Z,74.81
2023-01-10T19:01:23.009Z,74.90
2023-01-10T19:03:51.680Z,74.91
2023-01-10T19:06:22.360Z,74.94
2023-01-10T19:08:51.181Z,75.03
2023-01-10T19:11:21.020Z,75.39
2023-01-10T19:13:53.456Z,75.47
2023-01-10T19:16:25.139Z,75.67
2023-01-10T19:19:00.985Z,75.58
2023-01-10T19:21:32.344Z,75.65
2023-01-10T19:24:04.648Z,75.65
2023-01-10T19:26:35.988Z,76.04
2023-01-10T19:29:04.796Z,76.21
2023-01-10T19:31:36.605Z,76.37
2023-01-10T19:34:07.968Z,76.95
2023-01-10T19:36:36.041Z,76.84
2023-01-10T19:39:06.782Z,76.96
2023-01-10T19:41:35.845Z,76.82
2023-01-10T19:44:08.777Z,76.89
2023-01-10T19:46:40.455Z,76.93
2023-01-10T19:49:09.339Z,76.74
2023-01-10T19:51:42.392Z,76.76
2023-01-10T19:54:13.338Z,76.73
2023-01-10T19:56:41.359Z,76.53
2023-01-10T19:59:13.441Z,76.52
2023-01-10T20:01:43.527Z,76.48
2023-01-10T20:04:17.025Z,76.44
2023-01-10T20:06:48.948Z,76.34
2023-01-10T20:09:17.160Z,75.89
2023-01-10T20:11:46.375Z,75.73
2023-01-10T20:14:19.635Z,75.47
2023-01-10T20:16:48.977Z,74.95
2023-01-10T20:19:18.239Z,74.89
2023-01-10T20:21:48.407Z,74.22
2023-01-10T20:24:20.540Z,74.37
2023-01-10T20:26:50.200Z,74.30
2023-01-10T20:29:19.164Z,73.98
2023-01-10T20:31:50.193Z,73.41
2023-01-10T20:34:22.512Z,73.34
2023-01-10T20:36:54.167Z,72.51
2023-01-10T20:39:27.302Z,72.59
2023-01-10T20:41:55.639Z,72.76
2023-01-10T20:44:25.604Z,72.78
2023-01-10T20:46:54.954Z,72.67
2023-01-10T20:49:25.761Z,72.37
2023-01-10T20:51:53.934Z,72.14
2023-01-10T20:54:25.248Z,72.24
2023-01-10T20:56:52.972Z,71.98
2023-01-10T20:59:21.737Z,72.01
2023-01-10T21:01:50.866Z,72.08
2023-01-10T21:04:18.794Z,72.14
2023-01-10T21:06:47.039Z,71.96
2023-01-10T21:09:16.204Z,72.18
2023-01-10T21:11:57.860Z,72.07
2023-01-10T21:14:14.383Z,71.82
2023-01-10T21:16:42.413Z,71.89
2023-01-10T21:19:12.309Z,71.54
2023-01-10T21:21:44.422Z,71.58
2023-01-10T21:24:12.680Z,71.56
2023-01-10T21:26:41.946Z,71.57
2023-01-10T21:29:12.818Z,71.52
2023-01-10T21:31:40.092Z,71.48
2023-01-10T21:34:08.158Z,71.35
2023-01-10T21:36:38.837Z,71.46
2023-01-10T21:39:08.001Z,71.42
2023-01-10T21:41:54.364Z,71.37
2023-01-10T21:44:22.676Z,71.16
2023-01-10T21:46:52.229Z,71.41
2023-01-10T21:49:20.865Z,71.51
2023-01-10T21:51:48.720Z,71.46
2023-01-10T21:54:20.064Z,71.58
2023-01-10T21:56:47.740Z,71.61
2023-01-10T21:59:18.598Z,71.44
2023-01-10T22:01:47.013Z,71.51
2023-01-10T22:04:17.326Z,71.55
2023-01-10T22:06:45.444Z,71.48
2023-01-10T22:09:13.109Z,71.56
2023-01-10T22:11:40.874Z,71.53
2023-01-10T22:14:10.441Z,71.60
2023-01-10T22:16:38.135Z,71.62
2023-01-10T22:19:06.151Z,71.47
2023-01-10T22:21:36.645Z,71.23
2023-01-10T22:24:06.495Z,71.14
2023-01-10T22:26:34.567Z,70.85
2023-01-10T22:29:03.827Z,70.91
2023-01-10T22:31:32.952Z,70.97
2023-01-10T22:34:00.694Z,70.68
2023-01-10T22:36:28.657Z,70.95
2023-01-10T22:38:56.430Z,70.50
2023-01-10T22:41:26.333Z,70.52
2023-01-10T22:43:55.368Z,70.35
2023-01-10T22:46:23.745Z,70.31
2023-01-10T22:48:52.378Z,70.14
2023-01-10T22:51:21.801Z,70.03
2023-01-10T22:53:58.793Z,70.05
2023-01-10T22:56:26.773Z,69.80
2023-01-10T22:58:57.286Z,69.78
2023-01-10T23:01:25.725Z,69.95
2023-01-10T23:03:53.421Z,69.86
2023-01-10T23:06:21.483Z,69.71
2023-01-10T23:08:50.111Z,69.55
2023-01-10T23:11:20.375Z,69.29
2023-01-10T23:13:48.353Z,69.57
2023-01-10T23:16:24.841Z,69.54
2023-01-10T23:18:52.732Z,69.28
2023-01-10T23:21:20.485Z,69.27
2023-01-10T23:23:48.527Z,69.42
2023-01-10T23:26:16.240Z,69.50
2023-01-10T23:28:47.895Z,69.59
2023-01-10T23:31:23.112Z,69.16
2023-01-10T23:33:51.287Z,69.32
2023-01-10T23:36:19.648Z,69.42
2023-01-10T23:38:47.674Z,69.31
2023-01-10T23:41:15.839Z,69.58
2023-01-10T23:43:43.891Z,69.65
2023-01-10T23:46:13.272Z,69.73
2023-01-10T23:48:42.668Z,69.75
2023-01-10T23:51:10.983Z,69.85
2023-01-10T23:53:40.269Z,69.81
2023-01-10T23:56:14.247Z,69.86
2023-01-10T23:58:42.539Z,69.70
